sensor_id;sensor_type;location;lat;lon;timestamp;temperature;humidity
42019;DHT22;27703;51.980;5.848;2024-01-30T00:01:10;8.50;99.90
42019;DHT22;27703;51.980;5.848;2024-01-30T00:03:36;8.50;99.90
42019;DHT22;27703;51.980;5.848;2024-01-30T00:06:03;8.50;99.90
42019;DHT22;27703;51.980;5.848;2024-01-30T00:08:29;8.50;99.90
42019;DHT22;27703;51.980;5.848;2024-01-30T00:10:54;8.50;99.90
42019;DHT22;27703;51.980;5.848;2024-01-30T00:13:20;8.40;99.90
42019;DHT22;27703;51.980;5.848;2024-01-30T00:15:46;8.40;99.90
42019;DHT22;27703;51.980;5.848;2024-01-30T00:18:11;8.30;99.90
42019;DHT22;27703;51.980;5.848;2024-01-30T00:20:37;8.20;99.90
42019;DHT22;27703;51.980;5.848;2024-01-30T00:23:02;8.10;99.90
42019;DHT22;27703;51.980;5.848;2024-01-30T00:25:28;8.00;99.90
42019;DHT22;27703;51.980;5.848;2024-01-30T00:27:54;8.00;99.90
42019;DHT22;27703;51.980;5.848;2024-01-30T00:30:20;8.00;99.90
42019;DHT22;27703;51.980;5.848;2024-01-30T00:32:46;7.90;99.90
42019;DHT22;27703;51.980;5.848;2024-01-30T00:35:11;7.80;99.90
42019;DHT22;27703;51.980;5.848;2024-01-30T00:37:37;7.80;99.90
42019;DHT22;27703;51.980;5.848;2024-01-30T00:40:03;7.70;99.90
42019;DHT22;27703;51.980;5.848;2024-01-30T00:42:29;7.60;99.90
42019;DHT22;27703;51.980;5.848;2024-01-30T00:44:54;7.50;99.90
42019;DHT22;27703;51.980;5.848;2024-01-30T00:47:20;7.40;99.90
42019;DHT22;27703;51.980;5.848;2024-01-30T00:49:45;7.40;99.90
42019;DHT22;27703;51.980;5.848;2024-01-30T00:52:11;7.30;99.90
42019;DHT22;27703;51.980;5.848;2024-01-30T00:54:37;7.20;99.90
42019;DHT22;27703;51.980;5.848;2024-01-30T00:57:03;7.20;99.90
42019;DHT22;27703;51.980;5.848;2024-01-30T00:59:28;7.10;99.90
42019;DHT22;27703;51.980;5.848;2024-01-30T01:01:54;7.00;99.90
42019;DHT22;27703;51.980;5.848;2024-01-30T01:04:19;7.00;99.90
42019;DHT22;27703;51.980;5.848;2024-01-30T01:06:46;7.00;99.90
42019;DHT22;27703;51.980;5.848;2024-01-30T01:09:12;6.90;99.90
42019;DHT22;27703;51.980;5.848;2024-01-30T01:11:38;6.90;99.90
42019;DHT22;27703;51.980;5.848;2024-01-30T01:14:04;6.90;99.90
42019;DHT22;27703;51.980;5.848;2024-01-30T01:16:30;6.90;99.90
42019;DHT22;27703;51.980;5.848;2024-01-30T01:18:56;6.80;99.90
42019;DHT22;27703;51.980;5.848;2024-01-30T01:21:21;6.80;99.90
42019;DHT22;27703;51.980;5.848;2024-01-30T01:23:47;6.80;99.90
42019;DHT22;27703;51.980;5.848;2024-01-30T01:26:12;6.80;99.90
42019;DHT22;27703;51.980;5.848;2024-01-30T01:28:40;6.80;99.90
42019;DHT22;27703;51.980;5.848;2024-01-30T01:31:06;6.90;99.90
42019;DHT22;27703;51.980;5.848;2024-01-30T01:33:32;6.90;99.90
42019;DHT22;27703;51.980;5.848;2024-01-30T01:35:59;6.90;99.90
42019;DHT22;27703;51.980;5.848;2024-01-30T01:38:24;6.80;99.90
42019;DHT22;27703;51.980;5.848;2024-01-30T01:40:50;6.80;99.90
42019;DHT22;27703;51.980;5.848;2024-01-30T01:43:16;6.80;99.90
42019;DHT22;27703;51.980;5.848;2024-01-30T01:45:42;6.80;99.90
42019;DHT22;27703;51.980;5.848;2024-01-30T01:48:08;6.70;99.90
42019;DHT22;27703;51.980;5.848;2024-01-30T01:50:34;6.70;99.90
42019;DHT22;27703;51.980;5.848;2024-01-30T01:53:01;6.70;99.90
42019;DHT22;27703;51.980;5.848;2024-01-30T01:55:29;6.80;99.90
42019;DHT22;27703;51.980;5.848;2024-01-30T01:57:56;6.70;99.90
42019;DHT22;27703;51.980;5.848;2024-01-30T02:00:22;6.70;99.90
42019;DHT22;27703;51.980;5.848;2024-01-30T02:02:49;6.70;99.90
42019;DHT22;27703;51.980;5.848;2024-01-30T02:05:15;6.70;99.90
42019;DHT22;27703;51.980;5.848;2024-01-30T02:07:41;6.70;99.90
42019;DHT22;27703;51.980;5.848;2024-01-30T02:10:08;6.70;99.90
42019;DHT22;27703;51.980;5.848;2024-01-30T02:12:34;6.80;99.90
42019;DHT22;27703;51.980;5.848;2024-01-30T02:15:00;6.80;99.90
42019;DHT22;27703;51.980;5.848;2024-01-30T02:17:26;6.80;99.90
42019;DHT22;27703;51.980;5.848;2024-01-30T02:19:52;6.70;99.90
42019;DHT22;27703;51.980;5.848;2024-01-30T02:22:18;6.80;99.90
42019;DHT22;27703;51.980;5.848;2024-01-30T02:24:44;6.80;99.90
42019;DHT22;27703;51.980;5.848;2024-01-30T02:27:10;6.90;99.90
42019;DHT22;27703;51.980;5.848;2024-01-30T02:29:35;6.80;99.90
42019;DHT22;27703;51.980;5.848;2024-01-30T02:32:01;6.80;99.90
42019;DHT22;27703;51.980;5.848;2024-01-30T02:34:27;6.80;99.90
42019;DHT22;27703;51.980;5.848;2024-01-30T02:36:52;6.80;99.90
42019;DHT22;27703;51.980;5.848;2024-01-30T02:39:18;6.80;99.90
42019;DHT22;27703;51.980;5.848;2024-01-30T02:41:44;6.80;99.90
42019;DHT22;27703;51.980;5.848;2024-01-30T02:44:09;6.90;99.90
42019;DHT22;27703;51.980;5.848;2024-01-30T02:46:35;6.80;99.90
42019;DHT22;27703;51.980;5.848;2024-01-30T02:49:00;6.80;99.90
42019;DHT22;27703;51.980;5.848;2024-01-30T02:51:26;6.80;99.90
42019;DHT22;27703;51.980;5.848;2024-01-30T02:53:51;6.90;99.90
42019;DHT22;27703;51.980;5.848;2024-01-30T02:56:17;6.80;99.90
42019;DHT22;27703;51.980;5.848;2024-01-30T02:58:43;6.90;99.90
42019;DHT22;27703;51.980;5.848;2024-01-30T03:01:08;6.90;99.90
42019;DHT22;27703;51.980;5.848;2024-01-30T03:03:34;6.90;99.90
42019;DHT22;27703;51.980;5.848;2024-01-30T03:06:01;6.90;99.90
42019;DHT22;27703;51.980;5.848;2024-01-30T03:08:27;6.90;99.90
42019;DHT22;27703;51.980;5.848;2024-01-30T03:10:53;6.80;99.90
42019;DHT22;27703;51.980;5.848;2024-01-30T03:13:18;6.80;99.90
42019;DHT22;27703;51.980;5.848;2024-01-30T03:15:44;6.70;99.90
42019;DHT22;27703;51.980;5.848;2024-01-30T03:18:10;6.70;99.90
42019;DHT22;27703;51.980;5.848;2024-01-30T03:20:35;6.70;99.90
42019;DHT22;27703;51.980;5.848;2024-01-30T03:23:01;6.70;99.90
42019;DHT22;27703;51.980;5.848;2024-01-30T03:25:27;6.60;99.90
42019;DHT22;27703;51.980;5.848;2024-01-30T03:27:52;6.60;99.90
42019;DHT22;27703;51.980;5.848;2024-01-30T03:30:18;6.60;99.90
42019;DHT22;27703;51.980;5.848;2024-01-30T03:32:43;6.60;99.90
42019;DHT22;27703;51.980;5.848;2024-01-30T03:35:09;6.60;99.90
42019;DHT22;27703;51.980;5.848;2024-01-30T03:37:35;6.60;99.90
42019;DHT22;27703;51.980;5.848;2024-01-30T03:40:02;6.60;99.90
42019;DHT22;27703;51.980;5.848;2024-01-30T03:42:28;6.50;99.90
42019;DHT22;27703;51.980;5.848;2024-01-30T03:44:54;6.60;99.90
42019;DHT22;27703;51.980;5.848;2024-01-30T03:47:20;6.60;99.90
42019;DHT22;27703;51.980;5.848;2024-01-30T03:49:46;6.60;99.90
42019;DHT22;27703;51.980;5.848;2024-01-30T03:52:11;6.60;99.90
42019;DHT22;27703;51.980;5.848;2024-01-30T03:54:37;6.70;99.90
42019;DHT22;27703;51.980;5.848;2024-01-30T03:57:03;6.70;99.90
42019;DHT22;27703;51.980;5.848;2024-01-30T03:59:28;6.80;99.90
42019;DHT22;27703;51.980;5.848;2024-01-30T04:01:54;6.90;99.90
42019;DHT22;27703;51.980;5.848;2024-01-30T04:04:20;6.90;99.90
42019;DHT22;27703;51.980;5.848;2024-01-30T04:06:46;6.90;99.90
42019;DHT22;27703;51.980;5.848;2024-01-30T04:09:13;6.90;99.90
42019;DHT22;27703;51.980;5.848;2024-01-30T04:11:39;6.80;99.90
42019;DHT22;27703;51.980;5.848;2024-01-30T04:14:04;6.80;99.90
42019;DHT22;27703;51.980;5.848;2024-01-30T04:16:30;6.80;99.90
42019;DHT22;27703;51.980;5.848;2024-01-30T04:18:56;6.70;99.90
42019;DHT22;27703;51.980;5.848;2024-01-30T04:21:22;6.70;99.90
42019;DHT22;27703;51.980;5.848;2024-01-30T04:23:48;6.70;99.90
42019;DHT22;27703;51.980;5.848;2024-01-30T04:26:14;6.70;99.90
42019;DHT22;27703;51.980;5.848;2024-01-30T04:28:46;6.60;99.90
42019;DHT22;27703;51.980;5.848;2024-01-30T04:31:12;6.60;99.90
42019;DHT22;27703;51.980;5.848;2024-01-30T04:33:37;6.60;99.90
42019;DHT22;27703;51.980;5.848;2024-01-30T04:36:03;6.60;99.90
42019;DHT22;27703;51.980;5.848;2024-01-30T04:38:29;6.60;99.90
42019;DHT22;27703;51.980;5.848;2024-01-30T04:40:55;6.60;99.90
42019;DHT22;27703;51.980;5.848;2024-01-30T04:43:20;6.60;99.90
42019;DHT22;27703;51.980;5.848;2024-01-30T04:45:46;6.50;99.90
42019;DHT22;27703;51.980;5.848;2024-01-30T04:48:12;6.60;99.90
42019;DHT22;27703;51.980;5.848;2024-01-30T04:50:38;6.60;99.90
42019;DHT22;27703;51.980;5.848;2024-01-30T04:53:03;6.70;99.90
42019;DHT22;27703;51.980;5.848;2024-01-30T04:55:29;6.90;99.90
42019;DHT22;27703;51.980;5.848;2024-01-30T04:57:54;7.00;99.90
42019;DHT22;27703;51.980;5.848;2024-01-30T05:00:20;7.00;99.90
42019;DHT22;27703;51.980;5.848;2024-01-30T05:02:45;7.10;99.90
42019;DHT22;27703;51.980;5.848;2024-01-30T05:05:11;7.10;99.90
42019;DHT22;27703;51.980;5.848;2024-01-30T05:07:38;7.10;99.90
42019;DHT22;27703;51.980;5.848;2024-01-30T05:10:04;7.10;99.90
42019;DHT22;27703;51.980;5.848;2024-01-30T05:12:29;7.10;99.90
42019;DHT22;27703;51.980;5.848;2024-01-30T05:14:55;7.10;99.90
42019;DHT22;27703;51.980;5.848;2024-01-30T05:17:21;7.10;99.90
42019;DHT22;27703;51.980;5.848;2024-01-30T05:19:46;7.10;99.90
42019;DHT22;27703;51.980;5.848;2024-01-30T05:22:12;7.00;99.90
42019;DHT22;27703;51.980;5.848;2024-01-30T05:24:44;7.00;99.90
42019;DHT22;27703;51.980;5.848;2024-01-30T05:27:09;7.00;99.90
42019;DHT22;27703;51.980;5.848;2024-01-30T05:29:35;7.00;99.90
42019;DHT22;27703;51.980;5.848;2024-01-30T05:32:00;7.10;99.90
42019;DHT22;27703;51.980;5.848;2024-01-30T05:34:26;7.10;99.90
42019;DHT22;27703;51.980;5.848;2024-01-30T05:36:51;7.00;99.90
42019;DHT22;27703;51.980;5.848;2024-01-30T05:39:17;7.00;99.90
42019;DHT22;27703;51.980;5.848;2024-01-30T05:41:42;7.00;99.90
42019;DHT22;27703;51.980;5.848;2024-01-30T05:44:08;7.10;99.90
42019;DHT22;27703;51.980;5.848;2024-01-30T05:46:35;7.10;99.90
42019;DHT22;27703;51.980;5.848;2024-01-30T05:49:01;7.20;99.90
42019;DHT22;27703;51.980;5.848;2024-01-30T05:51:26;7.20;99.90
42019;DHT22;27703;51.980;5.848;2024-01-30T05:53:53;7.20;99.90
42019;DHT22;27703;51.980;5.848;2024-01-30T05:56:19;7.30;99.90
42019;DHT22;27703;51.980;5.848;2024-01-30T05:58:45;7.40;99.90
42019;DHT22;27703;51.980;5.848;2024-01-30T06:01:10;7.50;99.90
42019;DHT22;27703;51.980;5.848;2024-01-30T06:03:36;7.60;99.90
42019;DHT22;27703;51.980;5.848;2024-01-30T06:06:01;7.60;99.90
42019;DHT22;27703;51.980;5.848;2024-01-30T06:08:27;7.70;99.90
42019;DHT22;27703;51.980;5.848;2024-01-30T06:10:53;7.80;99.90
42019;DHT22;27703;51.980;5.848;2024-01-30T06:13:18;7.80;99.90
42019;DHT22;27703;51.980;5.848;2024-01-30T06:15:44;7.80;99.90
42019;DHT22;27703;51.980;5.848;2024-01-30T06:18:09;7.80;99.90
42019;DHT22;27703;51.980;5.848;2024-01-30T06:20:35;7.80;99.90
42019;DHT22;27703;51.980;5.848;2024-01-30T06:23:00;7.80;99.90
42019;DHT22;27703;51.980;5.848;2024-01-30T06:25:26;7.90;99.90
42019;DHT22;27703;51.980;5.848;2024-01-30T06:27:52;7.90;99.90
42019;DHT22;27703;51.980;5.848;2024-01-30T06:30:18;8.00;99.90
42019;DHT22;27703;51.980;5.848;2024-01-30T06:32:43;8.00;99.90
42019;DHT22;27703;51.980;5.848;2024-01-30T06:35:09;8.00;99.90
42019;DHT22;27703;51.980;5.848;2024-01-30T06:37:36;8.10;99.90
42019;DHT22;27703;51.980;5.848;2024-01-30T06:40:01;8.10;99.90
42019;DHT22;27703;51.980;5.848;2024-01-30T06:42:27;8.00;99.90
42019;DHT22;27703;51.980;5.848;2024-01-30T06:44:53;8.00;99.90
42019;DHT22;27703;51.980;5.848;2024-01-30T06:47:18;8.00;99.90
42019;DHT22;27703;51.980;5.848;2024-01-30T06:49:44;8.00;99.90
42019;DHT22;27703;51.980;5.848;2024-01-30T06:52:10;8.00;99.90
42019;DHT22;27703;51.980;5.848;2024-01-30T06:54:36;8.00;99.90
42019;DHT22;27703;51.980;5.848;2024-01-30T06:57:02;8.00;99.90
42019;DHT22;27703;51.980;5.848;2024-01-30T06:59:28;8.10;99.90
42019;DHT22;27703;51.980;5.848;2024-01-30T07:01:54;8.10;99.90
42019;DHT22;27703;51.980;5.848;2024-01-30T07:04:19;8.10;99.90
42019;DHT22;27703;51.980;5.848;2024-01-30T07:06:45;8.10;99.90
42019;DHT22;27703;51.980;5.848;2024-01-30T07:09:11;8.20;99.90
42019;DHT22;27703;51.980;5.848;2024-01-30T07:11:37;8.10;99.90
42019;DHT22;27703;51.980;5.848;2024-01-30T07:14:03;8.10;99.90
42019;DHT22;27703;51.980;5.848;2024-01-30T07:16:31;8.20;99.90
42019;DHT22;27703;51.980;5.848;2024-01-30T07:18:57;8.20;99.90
42019;DHT22;27703;51.980;5.848;2024-01-30T07:21:23;8.10;99.90
42019;DHT22;27703;51.980;5.848;2024-01-30T07:23:56;8.10;99.90
42019;DHT22;27703;51.980;5.848;2024-01-30T07:26:22;8.10;99.90
42019;DHT22;27703;51.980;5.848;2024-01-30T07:28:48;8.10;99.90
42019;DHT22;27703;51.980;5.848;2024-01-30T07:31:14;8.10;99.90
42019;DHT22;27703;51.980;5.848;2024-01-30T07:33:39;8.10;99.90
42019;DHT22;27703;51.980;5.848;2024-01-30T07:36:05;8.10;99.90
42019;DHT22;27703;51.980;5.848;2024-01-30T07:38:34;8.10;99.90
42019;DHT22;27703;51.980;5.848;2024-01-30T07:41:00;8.20;99.90
42019;DHT22;27703;51.980;5.848;2024-01-30T07:43:25;8.20;99.90
42019;DHT22;27703;51.980;5.848;2024-01-30T07:45:51;8.20;99.90
42019;DHT22;27703;51.980;5.848;2024-01-30T07:48:16;8.20;99.90
42019;DHT22;27703;51.980;5.848;2024-01-30T07:50:42;8.20;99.90
42019;DHT22;27703;51.980;5.848;2024-01-30T07:53:08;8.20;99.90
42019;DHT22;27703;51.980;5.848;2024-01-30T07:55:33;8.30;99.90
42019;DHT22;27703;51.980;5.848;2024-01-30T07:57:59;8.30;99.90
42019;DHT22;27703;51.980;5.848;2024-01-30T08:00:25;8.30;99.90
42019;DHT22;27703;51.980;5.848;2024-01-30T08:02:53;8.40;99.90
42019;DHT22;27703;51.980;5.848;2024-01-30T08:05:22;8.40;99.90
42019;DHT22;27703;51.980;5.848;2024-01-30T08:07:49;8.40;99.90
42019;DHT22;27703;51.980;5.848;2024-01-30T08:10:15;8.40;99.90
42019;DHT22;27703;51.980;5.848;2024-01-30T08:12:41;8.40;99.90
42019;DHT22;27703;51.980;5.848;2024-01-30T08:15:07;8.50;99.90
42019;DHT22;27703;51.980;5.848;2024-01-30T08:17:33;8.50;99.90
42019;DHT22;27703;51.980;5.848;2024-01-30T08:19:58;8.60;99.90
42019;DHT22;27703;51.980;5.848;2024-01-30T08:22:24;8.60;99.90
42019;DHT22;27703;51.980;5.848;2024-01-30T08:24:50;8.60;99.90
42019;DHT22;27703;51.980;5.848;2024-01-30T08:27:15;8.70;99.90
42019;DHT22;27703;51.980;5.848;2024-01-30T08:29:41;8.70;99.90
42019;DHT22;27703;51.980;5.848;2024-01-30T08:32:07;8.70;99.90
42019;DHT22;27703;51.980;5.848;2024-01-30T08:34:33;8.80;99.90
42019;DHT22;27703;51.980;5.848;2024-01-30T08:36:58;8.80;99.90
42019;DHT22;27703;51.980;5.848;2024-01-30T08:39:24;8.80;99.90
42019;DHT22;27703;51.980;5.848;2024-01-30T08:41:50;8.90;99.90
42019;DHT22;27703;51.980;5.848;2024-01-30T08:44:16;8.90;99.90
42019;DHT22;27703;51.980;5.848;2024-01-30T08:46:43;8.90;99.90
42019;DHT22;27703;51.980;5.848;2024-01-30T08:49:10;8.90;99.90
42019;DHT22;27703;51.980;5.848;2024-01-30T08:51:35;8.90;99.90
42019;DHT22;27703;51.980;5.848;2024-01-30T08:54:01;9.00;99.90
42019;DHT22;27703;51.980;5.848;2024-01-30T08:56:27;9.00;99.90
42019;DHT22;27703;51.980;5.848;2024-01-30T08:58:53;9.00;99.90
42019;DHT22;27703;51.980;5.848;2024-01-30T09:01:18;9.00;99.90
42019;DHT22;27703;51.980;5.848;2024-01-30T09:03:44;9.10;99.90
42019;DHT22;27703;51.980;5.848;2024-01-30T09:06:11;9.10;99.90
42019;DHT22;27703;51.980;5.848;2024-01-30T09:08:37;9.10;99.90
42019;DHT22;27703;51.980;5.848;2024-01-30T09:11:13;9.10;99.90
42019;DHT22;27703;51.980;5.848;2024-01-30T09:13:39;9.10;99.90
42019;DHT22;27703;51.980;5.848;2024-01-30T09:16:05;9.20;99.90
42019;DHT22;27703;51.980;5.848;2024-01-30T09:18:31;9.20;99.90
42019;DHT22;27703;51.980;5.848;2024-01-30T09:20:57;9.20;99.90
42019;DHT22;27703;51.980;5.848;2024-01-30T09:23:23;9.20;99.90
42019;DHT22;27703;51.980;5.848;2024-01-30T09:25:48;9.20;99.90
42019;DHT22;27703;51.980;5.848;2024-01-30T09:28:14;9.20;99.90
42019;DHT22;27703;51.980;5.848;2024-01-30T09:30:40;9.30;99.90
42019;DHT22;27703;51.980;5.848;2024-01-30T09:33:06;9.30;99.90
42019;DHT22;27703;51.980;5.848;2024-01-30T09:35:32;9.30;99.90
42019;DHT22;27703;51.980;5.848;2024-01-30T09:37:57;9.40;99.90
42019;DHT22;27703;51.980;5.848;2024-01-30T09:40:24;9.40;99.90
42019;DHT22;27703;51.980;5.848;2024-01-30T09:42:50;9.40;99.90
42019;DHT22;27703;51.980;5.848;2024-01-30T09:45:18;9.50;99.90
42019;DHT22;27703;51.980;5.848;2024-01-30T09:47:45;9.50;99.90
42019;DHT22;27703;51.980;5.848;2024-01-30T09:50:12;9.50;99.90
42019;DHT22;27703;51.980;5.848;2024-01-30T09:52:38;9.50;99.90
42019;DHT22;27703;51.980;5.848;2024-01-30T09:55:04;9.50;99.90
42019;DHT22;27703;51.980;5.848;2024-01-30T09:57:30;9.50;99.90
42019;DHT22;27703;51.980;5.848;2024-01-30T09:59:56;9.50;99.90
42019;DHT22;27703;51.980;5.848;2024-01-30T10:02:22;9.60;99.90
42019;DHT22;27703;51.980;5.848;2024-01-30T10:04:49;9.60;99.90
42019;DHT22;27703;51.980;5.848;2024-01-30T10:07:15;9.70;99.90
42019;DHT22;27703;51.980;5.848;2024-01-30T10:09:41;9.70;99.90
42019;DHT22;27703;51.980;5.848;2024-01-30T10:12:08;9.80;99.90
42019;DHT22;27703;51.980;5.848;2024-01-30T10:14:37;9.80;99.90
42019;DHT22;27703;51.980;5.848;2024-01-30T10:17:03;9.90;99.90
42019;DHT22;27703;51.980;5.848;2024-01-30T10:19:29;9.90;99.90
42019;DHT22;27703;51.980;5.848;2024-01-30T10:21:55;9.90;99.90
42019;DHT22;27703;51.980;5.848;2024-01-30T10:24:24;9.90;99.90
42019;DHT22;27703;51.980;5.848;2024-01-30T10:26:50;10.00;99.90
42019;DHT22;27703;51.980;5.848;2024-01-30T10:29:16;10.00;99.90
42019;DHT22;27703;51.980;5.848;2024-01-30T10:31:42;10.10;99.90
42019;DHT22;27703;51.980;5.848;2024-01-30T10:34:08;10.10;99.90
42019;DHT22;27703;51.980;5.848;2024-01-30T10:36:43;10.20;99.90
42019;DHT22;27703;51.980;5.848;2024-01-30T10:39:13;10.20;99.90
42019;DHT22;27703;51.980;5.848;2024-01-30T10:41:47;10.20;99.90
42019;DHT22;27703;51.980;5.848;2024-01-30T10:44:18;10.30;99.90
42019;DHT22;27703;51.980;5.848;2024-01-30T10:46:45;10.40;99.90
42019;DHT22;27703;51.980;5.848;2024-01-30T10:49:15;10.40;99.90
42019;DHT22;27703;51.980;5.848;2024-01-30T10:51:41;10.40;99.90
42019;DHT22;27703;51.980;5.848;2024-01-30T10:54:07;10.50;99.90
42019;DHT22;27703;51.980;5.848;2024-01-30T10:56:33;10.60;99.90
42019;DHT22;27703;51.980;5.848;2024-01-30T10:59:00;10.60;99.90
42019;DHT22;27703;51.980;5.848;2024-01-30T11:01:28;10.70;99.90
42019;DHT22;27703;51.980;5.848;2024-01-30T11:03:54;10.80;99.90
42019;DHT22;27703;51.980;5.848;2024-01-30T11:06:24;10.80;99.90
42019;DHT22;27703;51.980;5.848;2024-01-30T11:09:03;10.80;99.90
42019;DHT22;27703;51.980;5.848;2024-01-30T11:12:00;10.80;99.90
42019;DHT22;27703;51.980;5.848;2024-01-30T11:14:26;10.90;99.90
42019;DHT22;27703;51.980;5.848;2024-01-30T11:16:52;11.00;99.90
42019;DHT22;27703;51.980;5.848;2024-01-30T11:19:30;11.10;99.90
42019;DHT22;27703;51.980;5.848;2024-01-30T11:21:56;11.20;99.90
42019;DHT22;27703;51.980;5.848;2024-01-30T11:24:23;11.20;99.90
42019;DHT22;27703;51.980;5.848;2024-01-30T11:26:49;11.30;99.90
42019;DHT22;27703;51.980;5.848;2024-01-30T11:29:17;11.30;99.90
42019;DHT22;27703;51.980;5.848;2024-01-30T11:31:56;11.30;99.90
42019;DHT22;27703;51.980;5.848;2024-01-30T11:34:22;11.30;99.90
42019;DHT22;27703;51.980;5.848;2024-01-30T11:37:12;11.30;99.90
42019;DHT22;27703;51.980;5.848;2024-01-30T11:39:37;11.20;99.90
42019;DHT22;27703;51.980;5.848;2024-01-30T11:42:03;11.20;99.90
42019;DHT22;27703;51.980;5.848;2024-01-30T11:44:30;11.30;99.90
42019;DHT22;27703;51.980;5.848;2024-01-30T11:46:56;11.30;99.90
42019;DHT22;27703;51.980;5.848;2024-01-30T11:49:23;11.30;99.90
42019;DHT22;27703;51.980;5.848;2024-01-30T11:51:49;11.30;99.90
42019;DHT22;27703;51.980;5.848;2024-01-30T11:54:15;11.40;99.90
42019;DHT22;27703;51.980;5.848;2024-01-30T11:56:42;11.50;99.90
42019;DHT22;27703;51.980;5.848;2024-01-30T11:59:07;11.50;99.90
42019;DHT22;27703;51.980;5.848;2024-01-30T12:01:33;11.70;99.90
42019;DHT22;27703;51.980;5.848;2024-01-30T12:03:59;11.60;99.90
42019;DHT22;27703;51.980;5.848;2024-01-30T12:06:25;11.60;99.90
42019;DHT22;27703;51.980;5.848;2024-01-30T12:08:58;11.60;99.90
42019;DHT22;27703;51.980;5.848;2024-01-30T12:11:24;11.50;99.90
42019;DHT22;27703;51.980;5.848;2024-01-30T12:13:52;11.50;99.90
42019;DHT22;27703;51.980;5.848;2024-01-30T12:16:19;11.50;99.90
42019;DHT22;27703;51.980;5.848;2024-01-30T12:18:45;11.50;99.90
42019;DHT22;27703;51.980;5.848;2024-01-30T12:21:11;11.60;99.90
42019;DHT22;27703;51.980;5.848;2024-01-30T12:23:36;11.60;99.90
42019;DHT22;27703;51.980;5.848;2024-01-30T12:26:03;11.80;99.90
42019;DHT22;27703;51.980;5.848;2024-01-30T12:28:32;11.90;99.90
42019;DHT22;27703;51.980;5.848;2024-01-30T12:31:07;12.10;99.90
42019;DHT22;27703;51.980;5.848;2024-01-30T12:33:32;12.10;99.90
42019;DHT22;27703;51.980;5.848;2024-01-30T12:36:01;12.00;99.90
42019;DHT22;27703;51.980;5.848;2024-01-30T12:38:27;12.00;99.90
42019;DHT22;27703;51.980;5.848;2024-01-30T12:40:56;11.80;99.90
42019;DHT22;27703;51.980;5.848;2024-01-30T12:43:22;11.70;99.90
42019;DHT22;27703;51.980;5.848;2024-01-30T12:45:49;11.50;99.90
42019;DHT22;27703;51.980;5.848;2024-01-30T12:48:15;11.40;99.90
42019;DHT22;27703;51.980;5.848;2024-01-30T12:50:41;11.30;99.90
42019;DHT22;27703;51.980;5.848;2024-01-30T12:53:07;11.20;99.90
42019;DHT22;27703;51.980;5.848;2024-01-30T12:55:32;11.10;99.90
42019;DHT22;27703;51.980;5.848;2024-01-30T12:57:58;11.00;99.90
42019;DHT22;27703;51.980;5.848;2024-01-30T13:00:23;11.00;99.90
42019;DHT22;27703;51.980;5.848;2024-01-30T13:02:49;11.00;99.90
42019;DHT22;27703;51.980;5.848;2024-01-30T13:05:15;11.00;99.90
42019;DHT22;27703;51.980;5.848;2024-01-30T13:07:40;10.90;99.90
42019;DHT22;27703;51.980;5.848;2024-01-30T13:10:06;10.90;99.90
42019;DHT22;27703;51.980;5.848;2024-01-30T13:12:32;11.00;99.90
42019;DHT22;27703;51.980;5.848;2024-01-30T13:14:58;11.00;99.90
42019;DHT22;27703;51.980;5.848;2024-01-30T13:17:26;11.00;99.90
42019;DHT22;27703;51.980;5.848;2024-01-30T13:19:52;11.10;99.90
42019;DHT22;27703;51.980;5.848;2024-01-30T13:22:19;11.10;99.90
42019;DHT22;27703;51.980;5.848;2024-01-30T13:24:47;11.20;99.90
42019;DHT22;27703;51.980;5.848;2024-01-30T13:27:12;11.20;99.90
42019;DHT22;27703;51.980;5.848;2024-01-30T13:29:38;11.20;99.90
42019;DHT22;27703;51.980;5.848;2024-01-30T13:32:04;11.20;99.90
42019;DHT22;27703;51.980;5.848;2024-01-30T13:34:30;11.20;99.90
42019;DHT22;27703;51.980;5.848;2024-01-30T13:36:55;11.20;99.90
42019;DHT22;27703;51.980;5.848;2024-01-30T13:39:21;11.00;99.90
42019;DHT22;27703;51.980;5.848;2024-01-30T13:41:46;10.90;99.90
42019;DHT22;27703;51.980;5.848;2024-01-30T13:44:13;10.80;99.90
42019;DHT22;27703;51.980;5.848;2024-01-30T13:46:39;10.70;99.90
42019;DHT22;27703;51.980;5.848;2024-01-30T13:49:05;10.60;99.90
42019;DHT22;27703;51.980;5.848;2024-01-30T13:51:30;10.50;99.90
42019;DHT22;27703;51.980;5.848;2024-01-30T13:53:56;10.40;99.90
42019;DHT22;27703;51.980;5.848;2024-01-30T13:56:21;10.30;99.90
42019;DHT22;27703;51.980;5.848;2024-01-30T13:58:50;10.20;99.90
42019;DHT22;27703;51.980;5.848;2024-01-30T14:01:16;10.10;99.90
42019;DHT22;27703;51.980;5.848;2024-01-30T14:03:42;10.10;99.90
42019;DHT22;27703;51.980;5.848;2024-01-30T14:06:07;10.00;99.90
42019;DHT22;27703;51.980;5.848;2024-01-30T14:08:33;9.90;99.90
42019;DHT22;27703;51.980;5.848;2024-01-30T14:10:59;9.90;99.90
42019;DHT22;27703;51.980;5.848;2024-01-30T14:13:24;9.90;99.90
42019;DHT22;27703;51.980;5.848;2024-01-30T14:15:51;9.80;99.90
42019;DHT22;27703;51.980;5.848;2024-01-30T14:18:17;9.80;99.90
42019;DHT22;27703;51.980;5.848;2024-01-30T14:20:43;9.80;99.90
42019;DHT22;27703;51.980;5.848;2024-01-30T14:23:09;9.80;99.90
42019;DHT22;27703;51.980;5.848;2024-01-30T14:25:34;9.80;99.90
42019;DHT22;27703;51.980;5.848;2024-01-30T14:28:00;9.80;99.90
42019;DHT22;27703;51.980;5.848;2024-01-30T14:30:26;9.80;99.90
42019;DHT22;27703;51.980;5.848;2024-01-30T14:32:51;9.80;99.90
42019;DHT22;27703;51.980;5.848;2024-01-30T14:35:17;9.80;99.90
42019;DHT22;27703;51.980;5.848;2024-01-30T14:37:42;9.80;99.90
42019;DHT22;27703;51.980;5.848;2024-01-30T14:40:08;9.80;99.90
42019;DHT22;27703;51.980;5.848;2024-01-30T14:42:34;9.80;99.90
42019;DHT22;27703;51.980;5.848;2024-01-30T14:45:01;9.80;99.90
42019;DHT22;27703;51.980;5.848;2024-01-30T14:47:27;9.80;99.90
42019;DHT22;27703;51.980;5.848;2024-01-30T14:49:53;9.70;99.90
42019;DHT22;27703;51.980;5.848;2024-01-30T14:52:18;9.70;99.90
42019;DHT22;27703;51.980;5.848;2024-01-30T14:54:44;9.70;99.90
42019;DHT22;27703;51.980;5.848;2024-01-30T14:57:10;9.70;99.90
42019;DHT22;27703;51.980;5.848;2024-01-30T14:59:36;9.60;99.90
42019;DHT22;27703;51.980;5.848;2024-01-30T15:02:02;9.60;99.90
42019;DHT22;27703;51.980;5.848;2024-01-30T15:04:27;9.50;99.90
42019;DHT22;27703;51.980;5.848;2024-01-30T15:06:53;9.50;99.90
42019;DHT22;27703;51.980;5.848;2024-01-30T15:09:19;9.50;99.90
42019;DHT22;27703;51.980;5.848;2024-01-30T15:11:46;9.50;99.90
42019;DHT22;27703;51.980;5.848;2024-01-30T15:14:12;9.50;99.90
42019;DHT22;27703;51.980;5.848;2024-01-30T15:16:38;9.40;99.90
42019;DHT22;27703;51.980;5.848;2024-01-30T15:19:04;9.40;99.90
42019;DHT22;27703;51.980;5.848;2024-01-30T15:21:31;9.40;99.90
42019;DHT22;27703;51.980;5.848;2024-01-30T15:23:56;9.40;99.90
42019;DHT22;27703;51.980;5.848;2024-01-30T15:26:22;9.40;99.90
42019;DHT22;27703;51.980;5.848;2024-01-30T15:28:48;9.30;99.90
42019;DHT22;27703;51.980;5.848;2024-01-30T15:31:13;9.30;99.90
42019;DHT22;27703;51.980;5.848;2024-01-30T15:33:39;9.30;99.90
42019;DHT22;27703;51.980;5.848;2024-01-30T15:36:05;9.30;99.90